Time;durP1;ratioP1;P1;durP2;ratioP2;P2;SDS_P1;SDS_P2;PMS_P1;PMS_P2;Temp;Humidity;BMP_temperature;BMP_pressure;BME280_temperature;BME280_humidity;BME280_pressure;Samples;Min_cycle;Max_cycle;Signal;HPM_P1;HPM_P2
2022/07/25 00:00:02;;;;;;;13.47;12.07;;;19.40;99.90;;;;;;5086316;28;20246;-60
2022/07/25 00:02:27;;;;;;;15.20;11.50;;;19.40;99.90;;;;;;5083017;28;20200;-60
2022/07/25 00:04:53;;;;;;;16.20;12.53;;;19.30;99.90;;;;;;5081699;28;20432;-60
2022/07/25 00:07:19;;;;;;;18.03;12.30;;;19.30;99.90;;;;;;5080255;28;20177;-60
2022/07/25 00:09:44;;;;;;;13.67;11.53;;;19.30;99.90;;;;;;5078285;28;20211;-59
2022/07/25 00:12:10;;;;;;;16.13;12.03;;;19.20;99.90;;;;;;5078041;28;20189;-60
2022/07/25 00:14:36;;;;;;;15.10;11.50;;;19.20;99.90;;;;;;5086445;28;20509;-59
2022/07/25 00:17:01;;;;;;;16.07;12.03;;;19.20;99.90;;;;;;5087365;28;20166;-60
2022/07/25 00:19:27;;;;;;;16.33;11.50;;;19.10;99.90;;;;;;5083262;28;20198;-59
2022/07/25 00:21:52;;;;;;;17.50;12.30;;;19.10;99.90;;;;;;5079296;28;20220;-59
2022/07/25 00:24:18;;;;;;;14.50;12.10;;;19.10;99.90;;;;;;5082767;28;20315;-60
2022/07/25 00:26:44;;;;;;;14.13;11.23;;;19.00;99.90;;;;;;5084147;28;20593;-60
2022/07/25 00:29:09;;;;;;;16.03;12.67;;;18.90;99.90;;;;;;5083693;28;20243;-60
2022/07/25 00:31:35;;;;;;;14.70;11.90;;;18.90;99.90;;;;;;5084413;28;20204;-60
2022/07/25 00:34:01;;;;;;;20.17;12.20;;;18.90;99.90;;;;;;5086226;28;20193;-60
2022/07/25 00:36:27;;;;;;;16.43;12.60;;;18.90;99.90;;;;;;5083767;28;20170;-60
2022/07/25 00:38:52;;;;;;;15.40;11.43;;;18.80;99.90;;;;;;5084847;28;20960;-60
2022/07/25 00:41:18;;;;;;;14.87;12.23;;;18.80;99.90;;;;;;5082489;28;20174;-60
2022/07/25 00:43:44;;;;;;;14.40;11.87;;;18.80;99.90;;;;;;5085390;28;20272;-61
2022/07/25 00:46:15;;;;;;;21.10;12.73;;;18.70;99.90;;;;;;5087070;28;20192;-61
2022/07/25 00:48:41;;;;;;;13.00;11.03;;;18.70;99.90;;;;;;5082680;28;20995;-61
2022/07/25 00:51:07;;;;;;;15.67;13.20;;;18.60;99.90;;;;;;5081253;28;20463;-60
2022/07/25 00:53:34;;;;;;;15.77;12.27;;;18.60;99.90;;;;;;5085024;28;20550;-60
2022/07/25 00:56:00;;;;;;;13.30;11.13;;;18.60;99.90;;;;;;5079238;28;20452;-61
2022/07/25 00:58:25;;;;;;;20.13;12.93;;;18.50;99.90;;;;;;5086165;28;20478;-60
2022/07/25 01:00:51;;;;;;;13.90;12.10;;;18.50;99.90;;;;;;5080573;28;20221;-61
2022/07/25 01:03:17;;;;;;;14.73;11.73;;;18.50;99.90;;;;;;5084311;28;20817;-61
2022/07/25 01:05:43;;;;;;;18.90;12.67;;;18.40;99.90;;;;;;5081214;28;20186;-60
2022/07/25 01:08:09;;;;;;;14.03;12.20;;;18.40;99.90;;;;;;5085803;28;20194;-59
2022/07/25 01:10:35;;;;;;;18.10;11.20;;;18.40;99.90;;;;;;5081678;28;21265;-61
2022/07/25 01:13:01;;;;;;;15.93;11.70;;;18.40;99.90;;;;;;5080818;28;20427;-61
2022/07/25 01:15:27;;;;;;;15.90;12.23;;;18.40;99.90;;;;;;5084017;28;20485;-61
2022/07/25 01:17:52;;;;;;;15.43;12.70;;;18.40;99.90;;;;;;5086532;28;20231;-60
2022/07/25 01:20:23;;;;;;;13.97;12.33;;;18.40;99.90;;;;;;5083289;28;20182;-60
2022/07/25 01:22:49;;;;;;;14.83;12.07;;;18.30;99.90;;;;;;5082492;28;20174;-60
2022/07/25 01:25:15;;;;;;;16.87;13.27;;;18.30;99.90;;;;;;5082856;28;20435;-61
2022/07/25 01:27:42;;;;;;;17.30;12.43;;;18.30;99.90;;;;;;5081335;28;20420;-59
2022/07/25 01:30:10;;;;;;;15.17;11.70;;;18.30;99.90;;;;;;5087836;28;20207;-59
2022/07/25 01:32:36;;;;;;;14.10;12.17;;;18.30;99.90;;;;;;5075101;28;20431;-59
2022/07/25 01:35:04;;;;;;;14.17;12.27;;;18.30;99.90;;;;;;5077346;28;20504;-60
2022/07/25 01:37:30;;;;;;;15.90;11.73;;;18.20;99.90;;;;;;5080313;28;20428;-60
2022/07/25 01:39:56;;;;;;;15.00;12.23;;;18.20;99.90;;;;;;5076686;28;20482;-60
2022/07/25 01:42:21;;;;;;;15.13;12.33;;;18.20;99.90;;;;;;5075018;28;20182;-60
2022/07/25 01:44:47;;;;;;;16.77;12.17;;;18.20;99.90;;;;;;5081917;28;20175;-60
2022/07/25 01:47:13;;;;;;;18.17;12.67;;;18.10;99.90;;;;;;5079502;28;20604;-60
2022/07/25 01:49:39;;;;;;;18.23;11.60;;;18.10;99.90;;;;;;5080179;28;20280;-60
2022/07/25 01:52:05;;;;;;;14.27;12.30;;;18.10;99.90;;;;;;5083327;28;20219;-60
2022/07/25 01:54:31;;;;;;;18.30;13.37;;;18.10;99.90;;;;;;5080401;28;20555;-61
2022/07/25 01:56:57;;;;;;;16.13;12.53;;;18.10;99.90;;;;;;5075847;28;20504;-60
2022/07/25 01:59:22;;;;;;;17.20;12.97;;;18.00;99.90;;;;;;5077117;28;20185;-60
2022/07/25 02:01:48;;;;;;;16.73;12.43;;;18.00;99.90;;;;;;5078719;28;20189;-60
2022/07/25 02:04:14;;;;;;;15.83;13.23;;;17.90;99.90;;;;;;5078831;28;20181;-60
2022/07/25 02:06:40;;;;;;;16.83;13.00;;;17.90;99.90;;;;;;5076756;28;20173;-60
2022/07/25 02:09:06;;;;;;;16.67;12.20;;;17.90;99.90;;;;;;5080514;28;20849;-60
2022/07/25 02:11:32;;;;;;;16.03;12.73;;;17.80;99.90;;;;;;5077504;28;21086;-60
2022/07/25 02:13:58;;;;;;;15.67;11.50;;;17.80;99.90;;;;;;5076282;28;20461;-60
2022/07/25 02:16:24;;;;;;;17.33;13.00;;;17.80;99.90;;;;;;5073258;28;20470;-60
2022/07/25 02:18:49;;;;;;;16.10;12.33;;;17.80;99.90;;;;;;5076779;28;20182;-60
2022/07/25 02:21:15;;;;;;;15.77;12.50;;;17.80;99.90;;;;;;5074857;28;20167;-60
2022/07/25 02:23:42;;;;;;;18.47;12.73;;;17.80;99.90;;;;;;5078126;28;20177;-60
2022/07/25 02:26:07;;;;;;;16.83;13.07;;;17.70;99.90;;;;;;5073560;28;20184;-60
2022/07/25 02:28:33;;;;;;;15.43;12.97;;;17.70;99.90;;;;;;5078140;28;20437;-60
2022/07/25 02:30:58;;;;;;;17.07;12.83;;;17.70;99.90;;;;;;5077235;28;20259;-60
2022/07/25 02:33:24;;;;;;;15.30;13.23;;;17.70;99.90;;;;;;5078647;28;20988;-61
2022/07/25 02:35:50;;;;;;;19.93;14.10;;;17.70;99.90;;;;;;5079515;28;20170;-61
2022/07/25 02:38:18;;;;;;;15.60;12.77;;;17.70;99.90;;;;;;5079769;28;20187;-61
2022/07/25 02:40:51;;;;;;;15.37;13.20;;;17.60;99.90;;;;;;5074615;28;20558;-61
2022/07/25 02:43:18;;;;;;;16.93;12.23;;;17.60;99.90;;;;;;5078724;28;20449;-61
2022/07/25 02:45:44;;;;;;;16.90;12.27;;;17.60;99.90;;;;;;5075256;28;20445;-60
2022/07/25 02:48:09;;;;;;;22.50;14.00;;;17.60;99.90;;;;;;5080705;28;20449;-61
2022/07/25 02:50:36;;;;;;;18.30;13.50;;;17.50;99.90;;;;;;5078802;28;20187;-61
2022/07/25 02:53:02;;;;;;;16.90;12.93;;;17.50;99.90;;;;;;5076801;28;20182;-60
2022/07/25 02:55:27;;;;;;;19.30;12.60;;;17.50;99.90;;;;;;5077256;28;20456;-61
2022/07/25 02:57:53;;;;;;;17.87;12.50;;;17.40;99.90;;;;;;5075770;28;20509;-60
2022/07/25 03:00:19;;;;;;;14.50;12.50;;;17.40;99.90;;;;;;5080249;28;20170;-61
2022/07/25 03:02:44;;;;;;;17.93;12.93;;;17.40;99.90;;;;;;5077064;28;20231;-61
2022/07/25 03:05:13;;;;;;;15.13;12.80;;;17.40;99.90;;;;;;5077138;28;20186;-61
2022/07/25 03:07:39;;;;;;;17.83;12.67;;;17.40;99.90;;;;;;5075436;28;20276;-60
2022/07/25 03:10:06;;;;;;;19.07;12.87;;;17.30;99.90;;;;;;5077505;28;20424;-60
2022/07/25 03:12:32;;;;;;;19.43;13.13;;;17.30;99.90;;;;;;5074133;28;20451;-60
2022/07/25 03:15:00;;;;;;;17.10;11.80;;;17.30;99.90;;;;;;5070978;28;21039;-60
2022/07/25 03:17:27;;;;;;;17.60;11.90;;;17.30;99.90;;;;;;5075319;28;20261;-60
2022/07/25 03:19:55;;;;;;;21.17;12.63;;;17.20;99.90;;;;;;5077861;28;20907;-60
2022/07/25 03:22:22;;;;;;;15.40;12.40;;;17.20;99.90;;;;;;5075316;28;20482;-60
2022/07/25 03:24:47;;;;;;;14.60;12.37;;;17.20;99.90;;;;;;5077434;28;21023;-61
2022/07/25 03:27:13;;;;;;;19.53;13.67;;;17.20;99.90;;;;;;5069575;28;20511;-60
2022/07/25 03:29:40;;;;;;;18.13;13.63;;;17.20;99.90;;;;;;5078585;28;20279;-60
2022/07/25 03:32:06;;;;;;;21.83;13.30;;;17.20;99.90;;;;;;5075144;28;20940;-57
2022/07/25 03:34:32;;;;;;;16.60;12.43;;;17.20;99.90;;;;;;5077917;28;20454;-55
2022/07/25 03:36:59;;;;;;;20.87;12.57;;;17.10;99.90;;;;;;5076558;28;20998;-57
2022/07/25 03:39:25;;;;;;;15.40;12.47;;;17.10;99.90;;;;;;5077427;28;20435;-56
2022/07/25 03:41:51;;;;;;;20.40;13.40;;;17.20;99.90;;;;;;5069225;28;20473;-59
2022/07/25 03:44:18;;;;;;;15.90;12.77;;;17.10;99.90;;;;;;5069394;28;20436;-54
2022/07/25 03:46:44;;;;;;;16.63;12.70;;;17.10;99.90;;;;;;5071766;28;20442;-56
2022/07/25 03:49:09;;;;;;;15.23;12.70;;;17.10;99.90;;;;;;5076081;28;20439;-60
2022/07/25 03:51:35;;;;;;;18.27;12.63;;;17.00;99.90;;;;;;5067561;28;20182;-59
2022/07/25 03:54:00;;;;;;;24.13;13.17;;;17.10;99.90;;;;;;5070999;28;20582;-60
2022/07/25 03:56:31;;;;;;;18.30;12.67;;;17.00;99.90;;;;;;5065813;28;20174;-61
2022/07/25 03:58:56;;;;;;;14.80;11.67;;;17.00;99.90;;;;;;5070332;28;20202;-60
2022/07/25 04:01:22;;;;;;;15.33;11.80;;;17.00;99.90;;;;;;5067070;28;20440;-61
2022/07/25 04:03:48;;;;;;;14.70;12.73;;;17.00;99.90;;;;;;5066665;28;20192;-60
2022/07/25 04:06:13;;;;;;;16.10;13.17;;;17.00;99.90;;;;;;5072738;28;20187;-60
2022/07/25 04:08:39;;;;;;;20.37;13.10;;;16.90;99.90;;;;;;5075944;28;20205;-60
2022/07/25 04:11:04;;;;;;;16.67;12.93;;;16.90;99.90;;;;;;5065867;28;20175;-60
2022/07/25 04:13:30;;;;;;;14.33;12.10;;;16.90;99.90;;;;;;5076408;28;20170;-59
2022/07/25 04:15:56;;;;;;;15.67;12.70;;;16.90;99.90;;;;;;5073179;28;20197;-60
2022/07/25 04:18:22;;;;;;;17.00;12.90;;;16.90;99.90;;;;;;5073333;28;20283;-62
2022/07/25 04:20:47;;;;;;;20.07;13.40;;;16.90;99.90;;;;;;5070404;28;21817;-61
2022/07/25 04:23:13;;;;;;;15.70;13.00;;;16.90;99.90;;;;;;5070250;28;20597;-60
2022/07/25 04:25:38;;;;;;;18.27;13.40;;;16.90;99.90;;;;;;5075466;28;20204;-61
2022/07/25 04:28:04;;;;;;;16.27;13.57;;;16.90;99.90;;;;;;5074976;28;20197;-61
2022/07/25 04:30:30;;;;;;;19.23;14.33;;;17.00;99.90;;;;;;5080227;28;20523;-62
2022/07/25 04:32:55;;;;;;;19.17;14.17;;;17.00;99.90;;;;;;5077789;28;20750;-61
2022/07/25 04:35:21;;;;;;;17.03;13.70;;;17.00;99.90;;;;;;5075788;28;20206;-61
2022/07/25 04:37:47;;;;;;;17.77;13.90;;;17.00;99.90;;;;;;5070066;28;20196;-62
2022/07/25 04:40:13;;;;;;;17.53;12.87;;;17.00;99.90;;;;;;5072461;28;20475;-61
2022/07/25 04:42:38;;;;;;;19.23;13.27;;;17.00;99.90;;;;;;5073606;28;20964;-61
2022/07/25 04:45:05;;;;;;;22.63;13.27;;;17.00;99.90;;;;;;5076838;28;20549;-61
2022/07/25 04:47:30;;;;;;;18.73;13.20;;;17.00;99.90;;;;;;5079268;28;20186;-62
2022/07/25 04:49:56;;;;;;;18.87;13.00;;;17.10;99.90;;;;;;5077011;28;20486;-61
2022/07/25 04:52:22;;;;;;;22.40;13.40;;;17.10;99.90;;;;;;5077206;28;20676;-61
2022/07/25 04:54:47;;;;;;;21.40;13.07;;;17.20;99.90;;;;;;5074501;28;20575;-61
2022/07/25 04:57:13;;;;;;;21.43;13.70;;;17.20;99.90;;;;;;5079325;28;20177;-62
2022/07/25 04:59:38;;;;;;;18.53;13.43;;;17.30;99.90;;;;;;5075415;28;20285;-62
2022/07/25 05:02:04;;;;;;;19.60;13.27;;;17.30;99.90;;;;;;5073701;28;20527;-61
2022/07/25 05:04:30;;;;;;;18.20;13.27;;;17.30;99.90;;;;;;5076196;28;20775;-61
2022/07/25 05:06:55;;;;;;;18.30;12.83;;;17.40;99.90;;;;;;5071948;28;20228;-62
2022/07/25 05:09:21;;;;;;;17.00;13.17;;;17.40;99.90;;;;;;5072630;28;21026;-61
2022/07/25 05:11:47;;;;;;;18.20;13.00;;;17.50;99.90;;;;;;5078540;28;20186;-61
2022/07/25 05:14:12;;;;;;;19.17;13.77;;;17.50;99.90;;;;;;5081625;28;20276;-62
2022/07/25 05:16:38;;;;;;;20.53;13.60;;;17.60;99.90;;;;;;5078239;28;22124;-62
2022/07/25 05:19:04;;;;;;;18.07;13.00;;;17.60;99.90;;;;;;5077472;28;20281;-62
2022/07/25 05:21:29;;;;;;;16.57;12.87;;;17.70;99.90;;;;;;5079040;28;21432;-62
2022/07/25 05:23:55;;;;;;;17.07;13.90;;;17.70;99.90;;;;;;5079949;28;20208;-62
2022/07/25 05:26:21;;;;;;;16.47;13.53;;;17.80;99.90;;;;;;5079430;28;20198;-62
2022/07/25 05:28:46;;;;;;;21.77;14.67;;;17.90;99.90;;;;;;5078481;28;20542;-61
2022/07/25 05:31:12;;;;;;;19.90;14.03;;;17.90;99.90;;;;;;5076447;28;20192;-62
2022/07/25 05:33:37;;;;;;;17.60;13.30;;;17.90;99.90;;;;;;5081298;28;20269;-61
2022/07/25 05:36:04;;;;;;;20.87;15.60;;;18.00;99.90;;;;;;5078566;28;20177;-61
2022/07/25 05:38:30;;;;;;;19.90;15.57;;;18.10;99.90;;;;;;5080267;28;20210;-62
2022/07/25 05:40:55;;;;;;;23.90;16.80;;;18.20;99.90;;;;;;5075503;28;20435;-61
2022/07/25 05:43:21;;;;;;;27.60;17.60;;;18.30;99.90;;;;;;5081676;28;20928;-61
2022/07/25 05:45:47;;;;;;;36.27;16.80;;;18.30;99.90;;;;;;5074018;28;20186;-62
2022/07/25 05:48:13;;;;;;;23.50;16.53;;;18.40;99.90;;;;;;5078566;28;20218;-61
2022/07/25 05:50:40;;;;;;;22.90;15.50;;;18.50;99.90;;;;;;5074203;28;20656;-63
2022/07/25 05:53:06;;;;;;;21.60;14.97;;;18.50;99.90;;;;;;5075944;28;20439;-62
2022/07/25 05:55:32;;;;;;;21.90;14.17;;;18.60;99.90;;;;;;5075218;28;20899;-62
2022/07/25 05:57:58;;;;;;;18.33;15.27;;;18.70;99.90;;;;;;5076021;28;20494;-62
2022/07/25 06:00:24;;;;;;;21.47;15.30;;;18.80;99.90;;;;;;5076638;28;20658;-62
2022/07/25 06:02:50;;;;;;;21.87;16.00;;;18.80;99.90;;;;;;5075201;28;20417;-61
2022/07/25 06:05:15;;;;;;;18.10;14.97;;;18.90;99.90;;;;;;5080675;28;20170;-62
2022/07/25 06:07:41;;;;;;;23.20;15.47;;;19.10;99.90;;;;;;5078477;28;20175;-61
2022/07/25 06:10:07;;;;;;;21.23;14.47;;;19.20;99.90;;;;;;5076718;28;20188;-62
2022/07/25 06:12:33;;;;;;;25.47;15.27;;;19.30;99.90;;;;;;5077731;28;20205;-62
2022/07/25 06:14:59;;;;;;;21.73;13.80;;;19.30;99.90;;;;;;5081705;28;20491;-62
2022/07/25 06:17:25;;;;;;;23.43;14.67;;;19.40;99.90;;;;;;5076969;28;20182;-62
2022/07/25 06:19:51;;;;;;;17.97;13.97;;;19.50;99.90;;;;;;5076231;28;20477;-62
2022/07/25 06:22:18;;;;;;;17.70;13.80;;;19.60;99.90;;;;;;5076008;28;20194;-61
2022/07/25 06:24:44;;;;;;;17.43;14.10;;;19.70;99.90;;;;;;5075995;28;20170;-62
2022/07/25 06:27:10;;;;;;;17.57;13.03;;;19.80;99.90;;;;;;5073036;28;20438;-61
2022/07/25 06:29:37;;;;;;;18.20;13.50;;;19.90;99.90;;;;;;5077429;28;20452;-61
2022/07/25 06:32:03;;;;;;;17.90;13.63;;;19.90;99.90;;;;;;5078261;28;20412;-62
2022/07/25 06:34:28;;;;;;;24.90;14.37;;;20.00;99.90;;;;;;5076688;28;20458;-61
2022/07/25 06:36:56;;;;;;;23.53;14.37;;;20.20;99.90;;;;;;5070046;28;20179;-62
2022/07/25 06:39:22;;;;;;;24.80;15.33;;;20.30;99.90;;;;;;5074101;28;20285;-62
2022/07/25 06:41:48;;;;;;;23.90;16.50;;;20.40;99.90;;;;;;5080962;28;20437;-62
2022/07/25 06:44:14;;;;;;;23.10;16.30;;;20.60;99.80;;;;;;5078522;28;20436;-63
2022/07/25 06:46:39;;;;;;;23.13;17.60;;;20.70;98.80;;;;;;5092703;28;20534;-62
2022/07/25 06:49:05;;;;;;;21.90;16.37;;;20.80;98.00;;;;;;5075484;28;20286;-62
2022/07/25 06:51:31;;;;;;;34.93;19.07;;;20.90;97.90;;;;;;5081265;28;20185;-62
2022/07/25 06:53:57;;;;;;;30.47;19.10;;;21.10;97.60;;;;;;5084074;28;20624;-61
2022/07/25 06:56:23;;;;;;;23.10;18.20;;;21.20;97.10;;;;;;5088610;28;20726;-62
2022/07/25 06:58:48;;;;;;;31.20;18.13;;;21.30;96.50;;;;;;5076915;28;20182;-62
2022/07/25 07:01:14;;;;;;;25.23;18.87;;;21.50;96.30;;;;;;5077766;28;20213;-61
2022/07/25 07:03:40;;;;;;;30.90;18.70;;;21.60;95.90;;;;;;5082159;28;20260;-62
2022/07/25 07:06:11;;;;;;;32.73;17.93;;;21.80;95.40;;;;;;5080029;28;20179;-62
2022/07/25 07:08:36;;;;;;;22.70;17.30;;;22.00;94.90;;;;;;5075261;28;20861;-63
2022/07/25 07:11:03;;;;;;;26.23;16.87;;;22.20;94.40;;;;;;5083197;28;20415;-63
2022/07/25 07:13:28;;;;;;;23.17;16.40;;;22.30;93.50;;;;;;5079666;28;20181;-63
2022/07/25 07:15:54;;;;;;;22.30;15.93;;;22.50;93.00;;;;;;5070478;28;20830;-62
2022/07/25 07:18:21;;;;;;;22.80;15.80;;;22.70;90.80;;;;;;5072203;28;20694;-62
2022/07/25 07:20:46;;;;;;;18.87;15.17;;;22.80;89.60;;;;;;5072064;28;20208;-62
2022/07/25 07:23:13;;;;;;;18.00;13.70;;;22.90;88.30;;;;;;5082905;28;20875;-61
2022/07/25 07:25:38;;;;;;;17.60;14.40;;;23.10;89.20;;;;;;5082602;28;20170;-62
2022/07/25 07:28:05;;;;;;;20.93;15.50;;;23.30;87.70;;;;;;5082536;28;20971;-62
2022/07/25 07:30:31;;;;;;;19.20;14.77;;;23.40;86.10;;;;;;5084336;28;20803;-62
2022/07/25 07:32:58;;;;;;;17.43;15.03;;;23.60;84.00;;;;;;5084818;28;20424;-63
2022/07/25 07:35:24;;;;;;;21.10;15.47;;;23.70;84.60;;;;;;5086526;28;20886;-63
2022/07/25 07:37:54;;;;;;;22.57;14.93;;;23.90;83.50;;;;;;5088535;28;20399;-63
2022/07/25 07:40:21;;;;;;;20.60;15.40;;;24.10;81.70;;;;;;5084257;28;20570;-63
2022/07/25 07:42:48;;;;;;;17.60;14.57;;;24.20;75.80;;;;;;5082232;28;20491;-62
2022/07/25 07:45:22;;;;;;;19.03;14.70;;;24.30;75.30;;;;;;5080897;28;20420;-62
2022/07/25 07:47:49;;;;;;;18.37;14.20;;;24.40;74.00;;;;;;5076148;28;20799;-60
2022/07/25 07:50:18;;;;;;;18.63;14.60;;;24.50;73.40;;;;;;5082190;28;20442;-62
2022/07/25 07:52:44;;;;;;;19.50;13.63;;;24.60;72.10;;;;;;5085506;28;20431;-62
2022/07/25 07:57:55;;;;;;;15.10;13.13;;;24.90;71.10;;;;;;5084901;28;20458;-62
2022/07/25 08:00:22;;;;;;;18.07;14.57;;;25.10;71.00;;;;;;5081301;28;20923;-62
2022/07/25 08:02:50;;;;;;;16.90;13.33;;;25.30;68.70;;;;;;5084600;28;20488;-62
2022/07/25 08:05:21;;;;;;;15.73;13.03;;;25.40;67.20;;;;;;5081370;28;20470;-62
2022/07/25 08:07:50;;;;;;;14.33;12.77;;;25.60;67.20;;;;;;5079818;28;20439;-61
2022/07/25 08:10:20;;;;;;;16.23;13.00;;;25.70;66.50;;;;;;5085604;28;20470;-61
2022/07/25 08:12:45;;;;;;;19.00;13.40;;;25.80;66.30;;;;;;5084900;28;20423;-62
2022/07/25 08:15:11;;;;;;;15.10;11.60;;;25.90;64.30;;;;;;5081088;28;20466;-61
2022/07/25 08:17:37;;;;;;;15.13;13.57;;;26.10;63.20;;;;;;5080459;28;20256;-62
2022/07/25 08:20:07;;;;;;;16.13;11.67;;;26.20;61.90;;;;;;5083835;28;20602;-62
2022/07/25 08:22:55;;;;;;;16.50;12.93;;;26.30;61.90;;;;;;5082336;28;20169;-60
2022/07/25 08:25:21;;;;;;;13.57;12.20;;;26.40;61.70;;;;;;5082113;28;20440;-61
2022/07/25 08:27:47;;;;;;;14.33;12.83;;;26.50;61.30;;;;;;5084220;28;20841;-61
2022/07/25 08:30:14;;;;;;;14.70;12.10;;;26.60;61.20;;;;;;5077797;28;20170;-61
2022/07/25 08:33:09;;;;;;;15.37;12.60;;;26.70;59.90;;;;;;5082715;28;20434;-62
2022/07/25 08:35:35;;;;;;;15.33;12.50;;;26.70;59.30;;;;;;5077450;28;20463;-61
2022/07/25 08:38:02;;;;;;;16.17;12.50;;;26.80;59.40;;;;;;5085431;28;20478;-62
2022/07/25 08:40:30;;;;;;;15.27;12.93;;;26.80;59.50;;;;;;5083985;28;20471;-61
2022/07/25 08:42:57;;;;;;;19.83;12.33;;;26.90;59.20;;;;;;5084031;28;20963;-62
2022/07/25 08:45:24;;;;;;;14.27;12.67;;;26.90;59.20;;;;;;5077548;28;20470;-62
2022/07/25 08:47:51;;;;;;;15.67;13.17;;;27.00;59.40;;;;;;5087851;28;20185;-63
2022/07/25 08:50:19;;;;;;;17.50;13.07;;;27.10;58.40;;;;;;5088900;28;20423;-61
2022/07/25 08:52:48;;;;;;;15.47;13.40;;;27.10;58.20;;;;;;5088005;28;20197;-62
2022/07/25 08:55:18;;;;;;;14.43;12.93;;;27.20;57.70;;;;;;5085667;28;20204;-62
2022/07/25 08:57:49;;;;;;;16.80;12.60;;;27.30;57.50;;;;;;5085025;28;20208;-60
2022/07/25 09:00:18;;;;;;;13.10;11.80;;;27.30;57.00;;;;;;5083805;28;20173;-62
2022/07/25 09:02:54;;;;;;;17.90;13.07;;;27.30;57.20;;;;;;5082398;28;20727;-61
2022/07/25 09:05:21;;;;;;;14.67;12.87;;;27.40;57.10;;;;;;5080881;28;20856;-61
2022/07/25 09:07:48;;;;;;;14.77;12.03;;;27.40;56.70;;;;;;5089943;28;20207;-61
2022/07/25 09:10:16;;;;;;;15.00;12.60;;;27.50;56.60;;;;;;5085115;28;20177;-62
2022/07/25 09:13:06;;;;;;;15.33;12.80;;;27.50;56.40;;;;;;5086533;28;20173;-61
2022/07/25 09:15:37;;;;;;;15.00;13.47;;;27.50;55.50;;;;;;5087379;28;20732;-61
2022/07/25 09:18:06;;;;;;;17.67;13.30;;;27.60;56.20;;;;;;5086540;28;20190;-59
2022/07/25 09:20:45;;;;;;;14.50;12.57;;;27.70;55.60;;;;;;5086715;28;20173;-61
2022/07/25 09:23:26;;;;;;;13.73;12.23;;;27.80;55.60;;;;;;5089477;28;20177;-61
2022/07/25 09:25:59;;;;;;;14.07;12.50;;;27.90;55.80;;;;;;5088830;28;20235;-61
2022/07/25 09:28:25;;;;;;;16.20;12.77;;;28.10;55.50;;;;;;5082097;28;20212;-62
2022/07/25 09:30:56;;;;;;;15.70;11.83;;;28.20;55.60;;;;;;5081283;28;20185;-60
2022/07/25 09:33:22;;;;;;;15.03;13.50;;;28.40;55.40;;;;;;5082262;28;20184;-60
2022/07/25 09:35:49;;;;;;;15.20;12.80;;;28.50;55.30;;;;;;5085930;28;20231;-62
2022/07/25 09:38:16;;;;;;;15.80;13.27;;;28.70;54.90;;;;;;5080679;28;20201;-61
2022/07/25 09:41:00;;;;;;;15.30;12.67;;;28.80;54.20;;;;;;5078527;28;20201;-60
2022/07/25 09:43:41;;;;;;;13.43;12.02;;;28.80;53.60;;;;;;5073417;28;20211;-62
2022/07/25 09:46:07;;;;;;;12.77;11.57;;;28.90;53.40;;;;;;5082034;28;20727;-61
2022/07/25 09:48:34;;;;;;;12.50;11.20;;;29.10;53.90;;;;;;5083079;28;20212;-61
2022/07/25 09:51:00;;;;;;;16.60;11.20;;;29.20;50.50;;;;;;5085243;28;20189;-60
2022/07/25 09:53:26;;;;;;;12.70;10.82;;;29.30;49.40;;;;;;5077530;28;20215;-60
2022/07/25 09:55:53;;;;;;;14.20;11.10;;;29.40;49.70;;;;;;5085192;28;20335;-61
2022/07/25 09:58:19;;;;;;;20.10;11.50;;;29.40;50.40;;;;;;5077968;28;20277;-63
2022/07/25 10:00:45;;;;;;;13.45;11.18;;;29.60;49.70;;;;;;5079776;28;20260;-61
2022/07/25 10:03:16;;;;;;;14.63;11.10;;;29.60;49.20;;;;;;5075794;28;20173;-61
2022/07/25 10:06:03;;;;;;;12.07;9.52;;;29.60;49.00;;;;;;5078712;28;20170;-62
2022/07/25 10:08:33;;;;;;;11.85;9.80;;;29.60;48.40;;;;;;5075296;28;20212;-60
2022/07/25 10:10:59;;;;;;;10.98;9.82;;;29.80;48.80;;;;;;5085393;28;20173;-62
2022/07/25 10:13:31;;;;;;;12.05;10.25;;;29.90;47.50;;;;;;5084951;28;20237;-61
2022/07/25 10:15:57;;;;;;;13.63;10.80;;;30.10;47.60;;;;;;5085381;28;20678;-61
2022/07/25 10:18:26;;;;;;;12.98;10.43;;;30.20;46.90;;;;;;5071542;28;20202;-61
2022/07/25 10:21:13;;;;;;;10.77;9.35;;;30.30;46.00;;;;;;5078911;28;20169;-62
2022/07/25 10:23:39;;;;;;;10.50;9.30;;;30.40;44.00;;;;;;5081749;28;20190;-61
2022/07/25 10:26:14;;;;;;;12.77;8.93;;;30.50;44.70;;;;;;5083746;28;20174;-62
2022/07/25 10:28:51;;;;;;;12.70;8.88;;;30.60;43.90;;;;;;5083644;28;20217;-61
2022/07/25 10:31:38;;;;;;;8.88;7.97;;;30.70;43.60;;;;;;5071607;28;20176;-61
2022/07/25 10:34:09;;;;;;;9.65;8.75;;;30.80;42.80;;;;;;5077834;28;20203;-62
2022/07/25 10:36:52;;;;;;;10.27;9.00;;;30.90;43.00;;;;;;5082841;28;20254;-62
2022/07/25 10:39:21;;;;;;;10.55;9.13;;;31.00;43.50;;;;;;5081241;28;20216;-61
2022/07/25 10:41:58;;;;;;;10.80;9.57;;;31.10;42.60;;;;;;5088090;28;20166;-61
2022/07/25 10:44:29;;;;;;;10.93;9.07;;;31.20;41.90;;;;;;5076685;28;20176;-61
2022/07/25 10:47:05;;;;;;;11.73;10.07;;;31.40;42.10;;;;;;5079103;28;20267;-61
2022/07/25 10:49:35;;;;;;;13.25;9.75;;;31.40;41.80;;;;;;5079396;28;20209;-61
2022/07/25 10:52:02;;;;;;;11.10;9.05;;;31.50;42.20;;;;;;5078996;28;20170;-62
2022/07/25 10:54:36;;;;;;;9.35;8.45;;;31.60;42.40;;;;;;5068541;28;20293;-62
2022/07/25 10:57:04;;;;;;;10.30;9.02;;;31.80;40.80;;;;;;5075680;28;20175;-61
2022/07/25 10:59:36;;;;;;;9.77;8.45;;;31.90;40.40;;;;;;5079373;28;20190;-62
2022/07/25 11:02:04;;;;;;;9.30;8.32;;;32.00;39.60;;;;;;5083958;28;20189;-62
2022/07/25 11:04:30;;;;;;;9.13;7.70;;;32.00;39.90;;;;;;5086429;28;20175;-62
2022/07/25 11:06:56;;;;;;;8.10;7.30;;;32.20;39.40;;;;;;5079370;28;20193;-61
2022/07/25 11:09:27;;;;;;;9.25;8.18;;;32.30;39.40;;;;;;5088357;28;20248;-62
2022/07/25 11:11:55;;;;;;;8.15;7.25;;;32.50;39.60;;;;;;5080670;28;20166;-62
2022/07/25 11:14:22;;;;;;;10.32;8.48;;;32.60;37.80;;;;;;5083090;28;20271;-62
2022/07/25 11:16:50;;;;;;;8.30;7.50;;;32.60;37.50;;;;;;5076781;28;20217;-61
2022/07/25 11:19:33;;;;;;;7.35;6.57;;;32.70;37.50;;;;;;5069665;28;20241;-62
2022/07/25 11:22:00;;;;;;;8.35;6.78;;;32.80;36.00;;;;;;5071961;28;20180;-61
2022/07/25 11:24:39;;;;;;;9.73;8.07;;;32.80;36.40;;;;;;5083281;28;20193;-61
2022/07/25 11:27:05;;;;;;;9.05;8.02;;;32.90;37.20;;;;;;5074821;28;20544;-61
2022/07/25 11:29:33;;;;;;;7.22;6.53;;;33.00;37.60;;;;;;5076152;28;20722;-61
2022/07/25 11:32:02;;;;;;;7.57;6.72;;;33.00;35.90;;;;;;5071988;28;20193;-60
2022/07/25 11:34:30;;;;;;;7.28;6.35;;;33.10;34.30;;;;;;5075073;28;20204;-62
2022/07/25 11:36:58;;;;;;;7.15;6.45;;;33.10;34.40;;;;;;5074193;28;20167;-62
2022/07/25 11:39:29;;;;;;;7.07;6.38;;;33.10;35.50;;;;;;5078100;28;20412;-62
2022/07/25 11:41:59;;;;;;;8.25;7.18;;;33.10;35.40;;;;;;5071710;28;21012;-61
2022/07/25 11:44:37;;;;;;;8.43;7.13;;;33.20;35.80;;;;;;5069154;28;20263;-62
2022/07/25 11:47:23;;;;;;;12.05;7.63;;;33.30;35.20;;;;;;5072492;28;20184;-61
2022/07/25 11:49:51;;;;;;;8.75;7.72;;;33.40;35.30;;;;;;5061513;28;20242;-62
2022/07/25 11:52:30;;;;;;;10.20;7.88;;;33.50;35.60;;;;;;5064730;28;20733;-62
2022/07/25 11:54:57;;;;;;;10.50;7.90;;;33.50;35.80;;;;;;5059575;28;20231;-62
2022/07/25 11:57:24;;;;;;;7.43;6.55;;;33.60;35.40;;;;;;5065343;28;20300;-63
2022/07/25 11:59:50;;;;;;;8.10;7.20;;;33.60;35.30;;;;;;5063371;28;20260;-63
2022/07/25 12:02:30;;;;;;;6.00;5.45;;;33.60;35.50;;;;;;5061717;28;20194;-64
2022/07/25 12:05:01;;;;;;;5.45;4.80;;;33.70;32.60;;;;;;5069746;28;20189;-62
2022/07/25 12:07:35;;;;;;;5.35;4.82;;;33.80;31.10;;;;;;5069328;28;20216;-63
2022/07/25 12:10:01;;;;;;;5.00;4.60;;;33.90;30.90;;;;;;5073163;28;20180;-62
2022/07/25 12:12:27;;;;;;;4.85;4.43;;;33.90;30.20;;;;;;5068175;28;20699;-62
2022/07/25 12:14:52;;;;;;;4.93;4.43;;;34.00;29.30;;;;;;5070275;28;20194;-62
2022/07/25 12:17:18;;;;;;;5.18;4.55;;;34.00;29.30;;;;;;5068686;28;20252;-62
2022/07/25 12:19:46;;;;;;;4.93;4.13;;;34.10;29.40;;;;;;5072230;28;20627;-62
2022/07/25 12:22:12;;;;;;;8.18;4.72;;;34.30;28.70;;;;;;5078455;28;20165;-61
2022/07/25 12:24:38;;;;;;;5.00;4.60;;;34.30;28.90;;;;;;5076534;28;20179;-61
2022/07/25 12:27:03;;;;;;;5.50;5.00;;;34.40;28.80;;;;;;5069634;28;20692;-62
2022/07/25 12:29:29;;;;;;;5.07;4.57;;;34.50;29.60;;;;;;5064312;28;22073;-60
2022/07/25 12:31:54;;;;;;;6.72;5.22;;;34.70;30.00;;;;;;5071636;28;20180;-59
2022/07/25 12:34:20;;;;;;;6.30;5.05;;;34.90;29.40;;;;;;5070747;28;20201;-61